LiveATC.Net - Listen to live air traffic control over the Internet!


ICAO: LFPG  IATA: CDG   Airport: Charles de Gaulle/Roissy Airport
City: Paris
Country: France   Continent: Europe
LFPG METAR Weather: LFPG 090830Z 24013KT 9999 -RA SCT013 BKN026 07/06 Q1002 TEMPO 28020G37KT 3000 SHRA SCT020CB BKN030
LFPG Flight Activity (FlightAware)

LFPG Departure
Feed Status: UP   Listeners: 1
Listen in your browser - HTML5 player (in browser, HTML5)
Click here to listen with your own player (launches your MP3 player)
Archive Access: LFPG Departure
FacilityFrequency
De Gaulle Departure124.350

NOTICE

Unauthorized use prohibited. See LiveATC.net Terms of Service


Airport/ARTCC Code
Frequency Search
(e.g., 124.400, 128.75)
Site-wide search
 


Browse Feeds
Top 50 Feeds
Coverage Map
Bad Weather Areas

LiveATC FAQ
Offer LiveATC feed
Contact LiveATC.net
Press Inquiries

LiveATC on iPhone
LiveATC on Android

Windows Phone
Windows 8/10

LiveATC Mobile
(Mobile browser)

ATC Audio Archives
Interesting Recordings

LiveATC Forums


Home Page
About LiveATC.net
Make a Donation
Terms of Use
Privacy Policy

Canadian Air Freqs

AIRMETs/SIGMETs

FAA Airport Status
Nat'l Airspace Status
Arrival Demand Charts


Server Software By:
Icecast.org
Liquidsoap